createdAt,value
2023-04-27T00:01:46.991Z,83.93
2023-04-27T00:04:14.741Z,83.83
2023-04-27T00:06:42.922Z,82.91
2023-04-27T00:09:10.185Z,82.33
2023-04-27T00:11:37.431Z,84.02
2023-04-27T00:14:04.711Z,85.22
2023-04-27T00:16:31.968Z,84.08
2023-04-27T00:18:59.230Z,83.49
2023-04-27T00:21:27.064Z,83.43
2023-04-27T00:23:54.704Z,82.35
2023-04-27T00:26:22.576Z,82.25
2023-04-27T00:28:51.659Z,83.72
2023-04-27T00:31:18.976Z,83.94
2023-04-27T00:33:46.285Z,84.56
2023-04-27T00:36:16.637Z,84.47
2023-04-27T00:38:43.906Z,84.34
2023-04-27T00:41:11.133Z,83.92
2023-04-27T00:43:42.198Z,84.60
2023-04-27T00:46:09.654Z,84.65
2023-04-27T00:48:37.458Z,84.49
2023-04-27T00:51:05.583Z,85.04
2023-04-27T00:53:34.244Z,85.43
2023-04-27T00:56:01.537Z,83.83
2023-04-27T00:58:29.542Z,85.28
2023-04-27T01:00:56.808Z,84.95
2023-04-27T01:03:24.225Z,84.52
2023-04-27T01:05:51.874Z,84.78
2023-04-27T01:08:19.124Z,83.71
2023-04-27T01:10:46.415Z,83.28
2023-04-27T01:13:13.681Z,82.76
2023-04-27T01:15:41.188Z,83.21
2023-04-27T01:18:10.306Z,82.24
2023-04-27T01:20:38.864Z,81.47
2023-04-27T01:23:06.462Z,81.00
2023-04-27T01:25:33.844Z,78.58
2023-04-27T01:28:02.957Z,80.39
2023-04-27T01:30:30.675Z,79.59
2023-04-27T01:32:59.478Z,79.37
2023-04-27T01:35:28.343Z,80.47
2023-04-27T01:38:00.326Z,79.70
2023-04-27T01:40:27.674Z,80.05
2023-04-27T01:42:54.986Z,79.52
2023-04-27T01:45:22.405Z,80.31
2023-04-27T01:47:52.846Z,79.60
2023-04-27T01:50:21.131Z,80.83
2023-04-27T01:52:48.485Z,80.77
2023-04-27T01:55:15.803Z,80.53
2023-04-27T01:57:43.291Z,82.49
2023-04-27T02:00:11.168Z,81.78
2023-04-27T02:02:53.762Z,82.07
2023-04-27T02:05:21.169Z,82.70
2023-04-27T02:07:49.465Z,80.66
2023-04-27T02:10:16.841Z,79.54
2023-04-27T02:12:45.668Z,80.07
2023-04-27T02:15:12.965Z,80.82
2023-04-27T02:17:40.249Z,81.02
2023-04-27T02:20:07.956Z,80.20
2023-04-27T02:22:35.251Z,79.82
2023-04-27T02:25:02.994Z,80.39
2023-04-27T02:27:30.563Z,80.71
2023-04-27T02:29:58.744Z,81.09
2023-04-27T02:32:27.216Z,80.55
2023-04-27T02:34:55.408Z,80.63
2023-04-27T02:37:22.845Z,80.54
2023-04-27T02:39:50.097Z,81.37
2023-04-27T02:42:17.372Z,80.71
2023-04-27T02:44:44.685Z,81.53
2023-04-27T02:47:12.779Z,81.67
2023-04-27T02:49:40.200Z,81.98
2023-04-27T02:52:07.885Z,82.05
2023-04-27T02:54:35.207Z,82.87
2023-04-27T02:57:02.549Z,82.18
2023-04-27T02:59:29.819Z,81.73
2023-04-27T03:01:57.103Z,80.78
2023-04-27T03:04:24.467Z,81.45
2023-04-27T03:06:51.826Z,81.39
2023-04-27T03:09:19.105Z,81.94
2023-04-27T03:11:46.589Z,82.16
2023-04-27T03:14:13.953Z,82.07
2023-04-27T03:16:41.296Z,82.78
2023-04-27T03:19:08.640Z,83.16
2023-04-27T03:21:36.151Z,82.72
2023-04-27T03:24:03.849Z,81.84
2023-04-27T03:26:31.664Z,82.28
2023-04-27T03:28:58.959Z,82.02
2023-04-27T03:31:29.115Z,82.94
2023-04-27T03:33:57.108Z,81.92
2023-04-27T03:36:24.394Z,81.98
2023-04-27T03:38:51.644Z,81.24
2023-04-27T03:41:19.183Z,81.40
2023-04-27T03:43:47.650Z,81.42
2023-04-27T03:46:15.015Z,82.08
2023-04-27T03:48:43.981Z,81.99
2023-04-27T03:51:11.545Z,81.69
2023-04-27T03:53:39.030Z,81.52
2023-04-27T03:56:07.951Z,82.04
2023-04-27T03:58:35.252Z,82.03
2023-04-27T04:01:10.227Z,81.15
2023-04-27T04:03:37.918Z,80.03
2023-04-27T04:06:08.891Z,80.49
2023-04-27T04:08:36.232Z,79.85
2023-04-27T04:11:03.946Z,80.67
2023-04-27T04:13:31.761Z,79.81
2023-04-27T04:16:08.929Z,77.45
2023-04-27T04:18:36.640Z,78.06
2023-04-27T04:21:04.729Z,78.74
2023-04-27T04:23:33.984Z,78.74
2023-04-27T04:26:02.291Z,78.49
2023-04-27T04:28:33.475Z,78.25
2023-04-27T04:31:05.981Z,78.74
2023-04-27T04:33:33.845Z,78.58
2023-04-27T04:36:04.365Z,78.55
2023-04-27T04:38:32.978Z,78.39
2023-04-27T04:41:01.195Z,78.80
2023-04-27T04:43:31.573Z,78.59
2023-04-27T04:45:59.261Z,77.77
2023-04-27T04:48:26.534Z,77.81
2023-04-27T04:50:56.004Z,78.51
2023-04-27T04:53:23.920Z,77.88
2023-04-27T04:55:51.159Z,77.35
2023-04-27T04:58:18.514Z,77.05
2023-04-27T05:00:45.873Z,76.45
2023-04-27T05:03:13.328Z,76.07
2023-04-27T05:05:41.006Z,76.17
2023-04-27T05:08:08.327Z,75.20
2023-04-27T05:10:35.600Z,75.05
2023-04-27T05:13:04.296Z,74.81
2023-04-27T05:15:33.163Z,75.02
2023-04-27T05:18:00.429Z,73.83
2023-04-27T05:20:27.693Z,73.77
2023-04-27T05:22:54.942Z,72.82
2023-04-27T05:25:22.200Z,72.46
2023-04-27T05:27:49.413Z,73.34
2023-04-27T05:30:16.666Z,72.35
2023-04-27T05:32:44.104Z,71.60
2023-04-27T05:35:11.422Z,71.02
2023-04-27T05:37:38.708Z,70.54
2023-04-27T05:40:09.274Z,70.71
2023-04-27T05:42:36.559Z,70.92
2023-04-27T05:45:04.194Z,70.15
2023-04-27T05:47:31.527Z,68.96
2023-04-27T05:49:58.897Z,68.04
2023-04-27T05:52:30.888Z,67.83
2023-04-27T05:55:01.200Z,68.16
2023-04-27T05:57:28.405Z,68.14
2023-04-27T05:59:55.749Z,67.85
2023-04-27T06:02:23.231Z,66.87
2023-04-27T06:04:50.745Z,66.86
2023-04-27T06:07:18.404Z,66.56
2023-04-27T06:09:45.823Z,66.59
2023-04-27T06:12:13.117Z,66.41
2023-04-27T06:14:43.245Z,65.42
2023-04-27T06:17:10.585Z,66.25
2023-04-27T06:19:37.910Z,64.61
2023-04-27T06:22:05.236Z,66.39
2023-04-27T06:24:32.568Z,65.25
2023-04-27T06:26:59.814Z,65.60
2023-04-27T06:29:27.078Z,64.27
2023-04-27T06:31:54.375Z,66.04
2023-04-27T06:34:21.791Z,66.48
2023-04-27T06:36:49.094Z,67.51
2023-04-27T06:39:16.682Z,65.85
2023-04-27T06:41:44.099Z,66.57
2023-04-27T06:44:19.262Z,66.82
2023-04-27T06:46:46.676Z,64.59
2023-04-27T06:49:14.310Z,63.09
2023-04-27T06:51:41.827Z,65.28
2023-04-27T06:54:09.077Z,64.55
2023-04-27T06:56:36.353Z,63.97
2023-04-27T06:59:03.693Z,59.90
2023-04-27T07:01:31.123Z,60.07
2023-04-27T07:03:58.601Z,56.66
2023-04-27T07:06:26.895Z,54.91
2023-04-27T07:08:54.202Z,51.66
2023-04-27T07:11:21.545Z,51.53
2023-04-27T07:13:48.819Z,49.82
2023-04-27T07:16:16.482Z,49.81
2023-04-27T07:18:43.927Z,48.13
2023-04-27T07:21:11.207Z,48.72
2023-04-27T07:23:40.364Z,48.43
2023-04-27T07:26:08.127Z,47.52
2023-04-27T07:28:35.546Z,48.17
2023-04-27T07:31:04.967Z,46.08
2023-04-27T07:33:35.406Z,44.85
2023-04-27T07:36:02.992Z,45.89
2023-04-27T07:38:31.323Z,43.38
2023-04-27T07:40:59.031Z,42.28
2023-04-27T07:43:26.804Z,41.92
2023-04-27T07:45:55.738Z,41.77
2023-04-27T07:48:23.782Z,41.53
2023-04-27T07:50:51.203Z,42.71
2023-04-27T07:53:18.743Z,42.17
2023-04-27T07:55:46.131Z,43.09
2023-04-27T07:58:13.438Z,41.68
2023-04-27T08:00:40.982Z,40.52
2023-04-27T08:03:09.316Z,41.46
2023-04-27T08:05:37.087Z,42.07
2023-04-27T08:08:05.604Z,41.73
2023-04-27T08:10:33.034Z,42.08
2023-04-27T08:13:00.363Z,41.90
2023-04-27T08:15:27.660Z,41.19
2023-04-27T08:17:54.980Z,40.96
2023-04-27T08:20:22.353Z,41.08
2023-04-27T08:22:51.118Z,40.74
2023-04-27T08:25:18.447Z,40.28
2023-04-27T08:27:45.796Z,39.78
2023-04-27T08:30:13.366Z,41.22
2023-04-27T08:32:41.068Z,40.69
2023-04-27T08:35:08.620Z,39.58
2023-04-27T08:37:38.084Z,40.04
2023-04-27T08:40:08.277Z,38.96
2023-04-27T08:42:35.948Z,39.33
2023-04-27T08:45:04.586Z,38.65
2023-04-27T08:47:41.898Z,38.97
2023-04-27T08:50:11.746Z,39.44
2023-04-27T08:52:44.792Z,40.93
2023-04-27T08:55:15.714Z,38.55
2023-04-27T08:57:57.452Z,38.32
2023-04-27T09:00:25.981Z,36.88
2023-04-27T09:02:53.675Z,36.68
2023-04-27T09:05:22.653Z,36.67
2023-04-27T09:08:08.088Z,37.02
2023-04-27T09:10:49.097Z,32.32
2023-04-27T09:13:16.748Z,32.92
2023-04-27T09:15:48.705Z,32.88
2023-04-27T09:18:22.892Z,34.20
2023-04-27T09:20:51.932Z,33.03
2023-04-27T09:23:46.565Z,31.94
2023-04-27T09:26:19.804Z,32.42
2023-04-27T09:28:48.490Z,33.34
2023-04-27T09:31:16.224Z,31.93
2023-04-27T09:33:44.068Z,32.59
2023-04-27T09:36:11.574Z,33.36
2023-04-27T09:38:38.914Z,33.47
2023-04-27T09:41:06.287Z,32.79
2023-04-27T09:43:33.795Z,34.29
2023-04-27T09:46:01.745Z,33.39
2023-04-27T09:48:29.169Z,33.63
2023-04-27T09:50:56.618Z,34.39
2023-04-27T09:53:28.743Z,35.00
2023-04-27T09:56:28.380Z,34.43
2023-04-27T09:59:02.218Z,34.82
2023-04-27T10:01:50.292Z,34.21
2023-04-27T10:04:42.781Z,35.29
2023-04-27T10:07:12.863Z,36.03
2023-04-27T10:09:50.319Z,36.36
2023-04-27T10:12:22.727Z,36.60
2023-04-27T10:14:56.347Z,36.25
2023-04-27T10:17:30.519Z,34.89
2023-04-27T10:20:01.380Z,35.29
2023-04-27T10:22:47.720Z,35.39
2023-04-27T10:25:19.366Z,35.84
2023-04-27T10:27:53.867Z,35.22
2023-04-27T10:30:22.444Z,35.06
2023-04-27T10:32:59.615Z,34.78
2023-04-27T10:35:36.753Z,34.48
2023-04-27T10:38:17.265Z,34.29
2023-04-27T10:40:45.750Z,34.07
2023-04-27T10:43:14.911Z,33.68
2023-04-27T10:45:42.645Z,33.75
2023-04-27T10:48:16.708Z,33.27
2023-04-27T10:50:47.116Z,31.77
2023-04-27T10:53:15.521Z,32.20
2023-04-27T10:55:42.845Z,32.23
2023-04-27T10:58:10.127Z,32.66
2023-04-27T11:00:41.591Z,32.54
2023-04-27T11:03:33.826Z,32.60
2023-04-27T11:06:04.881Z,32.61
2023-04-27T11:08:43.878Z,32.94
2023-04-27T11:11:16.545Z,33.27
2023-04-27T11:13:44.749Z,32.97
2023-04-27T11:16:12.087Z,33.47
2023-04-27T11:18:39.374Z,33.46
2023-04-27T11:21:10.963Z,33.08
2023-04-27T11:23:38.832Z,33.68
2023-04-27T11:26:18.198Z,33.24
2023-04-27T11:29:01.032Z,33.57
2023-04-27T11:31:29.233Z,34.32
2023-04-27T11:33:56.625Z,34.31
2023-04-27T11:36:24.447Z,34.25
2023-04-27T11:38:57.380Z,34.87
2023-04-27T11:41:37.010Z,34.66
2023-04-27T11:44:07.871Z,34.81
2023-04-27T11:46:38.618Z,34.26
2023-04-27T11:49:06.427Z,34.54
2023-04-27T11:51:33.880Z,33.82
2023-04-27T11:54:07.357Z,32.69
2023-04-27T11:56:38.645Z,31.93
2023-04-27T11:59:06.121Z,32.39
2023-04-27T12:01:38.221Z,32.66
2023-04-27T12:04:11.285Z,32.98
2023-04-27T12:06:38.972Z,34.38
2023-04-27T12:09:06.361Z,34.66
2023-04-27T12:11:33.640Z,32.56
2023-04-27T12:14:02.179Z,32.43
2023-04-27T12:16:29.567Z,32.47
2023-04-27T12:18:59.385Z,32.21
2023-04-27T12:21:26.720Z,32.23
2023-04-27T12:23:54.272Z,32.29
2023-04-27T12:26:21.587Z,32.20
2023-04-27T12:28:48.893Z,30.94
2023-04-27T12:31:24.674Z,29.72
2023-04-27T12:33:54.114Z,29.06
2023-04-27T12:36:21.594Z,29.45
2023-04-27T12:38:49.036Z,28.86
2023-04-27T12:41:16.429Z,27.79
2023-04-27T12:43:45.865Z,27.87
2023-04-27T12:46:13.201Z,29.21
2023-04-27T12:48:41.198Z,28.32
2023-04-27T12:51:08.980Z,29.17
2023-04-27T12:53:36.685Z,31.54
2023-04-27T12:56:04.633Z,33.80
2023-04-27T12:58:32.060Z,33.71
2023-04-27T13:00:59.339Z,32.95
2023-04-27T13:03:26.752Z,32.41
2023-04-27T13:05:54.331Z,32.61
2023-04-27T13:08:21.659Z,32.80
2023-04-27T13:10:48.963Z,32.54
2023-04-27T13:13:16.295Z,33.79
2023-04-27T13:15:43.702Z,33.53
2023-04-27T13:18:11.639Z,33.56
2023-04-27T13:20:39.016Z,33.16
2023-04-27T13:23:06.698Z,33.49
2023-04-27T13:25:36.442Z,33.54
2023-04-27T13:28:03.724Z,33.15
2023-04-27T13:30:31.853Z,32.53
2023-04-27T13:33:10.495Z,32.22
2023-04-27T13:35:46.136Z,30.81
2023-04-27T13:38:13.406Z,29.80
2023-04-27T13:40:40.660Z,29.86
2023-04-27T13:43:08.002Z,30.42
2023-04-27T13:45:35.384Z,31.28
2023-04-27T13:48:02.818Z,30.50
2023-04-27T13:50:30.338Z,30.84
2023-04-27T13:52:57.593Z,30.65
2023-04-27T13:55:25.002Z,30.72
2023-04-27T13:57:52.247Z,28.80
2023-04-27T14:00:20.145Z,28.75
2023-04-27T14:02:47.549Z,28.37
2023-04-27T14:05:14.882Z,28.16
2023-04-27T14:07:42.221Z,28.51
2023-04-27T14:10:09.865Z,27.41
2023-04-27T14:12:37.285Z,25.80
2023-04-27T14:15:04.967Z,24.46
2023-04-27T14:17:32.412Z,24.04
2023-04-27T14:19:59.656Z,23.81
2023-04-27T14:22:26.962Z,24.53
2023-04-27T14:24:56.437Z,25.09
2023-04-27T14:27:23.776Z,27.07
2023-04-27T14:29:51.004Z,25.38
2023-04-27T14:32:20.643Z,25.59
2023-04-27T14:34:47.999Z,24.18
2023-04-27T14:37:15.331Z,23.06
2023-04-27T14:39:45.129Z,22.26
2023-04-27T14:42:12.709Z,21.07
2023-04-27T14:44:40.003Z,20.35
2023-04-27T14:47:07.328Z,19.88
2023-04-27T14:49:34.654Z,20.67
2023-04-27T14:52:04.749Z,20.02
2023-04-27T14:54:32.375Z,21.17
2023-04-27T14:57:01.177Z,21.25
2023-04-27T14:59:29.005Z,21.72
2023-04-27T15:01:56.337Z,21.41
2023-04-27T15:04:23.821Z,21.43
2023-04-27T15:06:51.805Z,21.36
2023-04-27T15:09:19.238Z,22.35
2023-04-27T15:11:46.819Z,22.80
2023-04-27T15:14:14.096Z,24.89
2023-04-27T15:16:41.350Z,23.69
2023-04-27T15:19:08.617Z,25.52
2023-04-27T15:21:35.956Z,26.28
2023-04-27T15:24:03.456Z,26.85
2023-04-27T15:26:30.821Z,27.87
2023-04-27T15:28:59.491Z,32.24
2023-04-27T15:31:26.829Z,34.09
2023-04-27T15:33:54.732Z,34.09
2023-04-27T15:36:23.066Z,35.76
2023-04-27T15:38:51.982Z,36.34
2023-04-27T15:41:19.354Z,36.98
2023-04-27T15:43:47.540Z,37.87
2023-04-27T15:46:15.700Z,37.76
2023-04-27T15:48:43.046Z,37.52
2023-04-27T15:51:10.645Z,37.27
2023-04-27T15:53:38.082Z,37.41
2023-04-27T15:56:05.679Z,34.29
2023-04-27T15:58:33.096Z,32.88
2023-04-27T16:01:00.570Z,32.07
2023-04-27T16:03:28.055Z,31.02
2023-04-27T16:05:55.511Z,30.90
2023-04-27T16:08:22.932Z,33.59
2023-04-27T16:10:50.582Z,33.76
2023-04-27T16:13:18.027Z,33.85
2023-04-27T16:15:45.403Z,33.39
2023-04-27T16:18:12.767Z,34.00
2023-04-27T16:20:40.261Z,34.98
2023-04-27T16:23:07.629Z,35.44
2023-04-27T16:25:34.972Z,36.47
2023-04-27T16:28:02.268Z,36.53
2023-04-27T16:30:29.500Z,37.51
2023-04-27T16:32:56.904Z,37.74
2023-04-27T16:35:24.177Z,37.94
2023-04-27T16:37:51.477Z,38.63
2023-04-27T16:40:18.796Z,38.56
2023-04-27T16:42:46.754Z,38.62
2023-04-27T16:45:14.047Z,39.42
2023-04-27T16:47:41.886Z,40.32
2023-04-27T16:50:09.766Z,40.45
2023-04-27T16:52:37.118Z,40.26
2023-04-27T16:55:04.727Z,40.55
2023-04-27T16:57:32.030Z,41.15
2023-04-27T17:00:00.354Z,40.94
2023-04-27T17:02:27.832Z,40.94
2023-04-27T17:04:55.974Z,41.29
2023-04-27T17:07:23.317Z,41.63
2023-04-27T17:09:50.625Z,42.92
2023-04-27T17:12:17.996Z,42.84
2023-04-27T17:14:45.477Z,43.04
2023-04-27T17:17:12.760Z,45.75
2023-04-27T17:19:40.096Z,45.16
2023-04-27T17:22:10.805Z,46.53
2023-04-27T17:24:38.466Z,47.70
2023-04-27T17:27:05.726Z,49.00
2023-04-27T17:29:33.011Z,49.77
2023-04-27T17:32:00.347Z,51.59
2023-04-27T17:34:27.623Z,52.61
2023-04-27T17:36:54.906Z,52.70
2023-04-27T17:39:22.790Z,53.18
2023-04-27T17:41:50.202Z,53.64
2023-04-27T17:44:17.577Z,54.30
2023-04-27T17:46:48.733Z,55.58
2023-04-27T17:49:17.051Z,54.84
2023-04-27T17:51:44.806Z,54.86
2023-04-27T17:54:12.389Z,54.25
2023-04-27T17:56:39.724Z,53.66
2023-04-27T17:59:07.808Z,54.08
2023-04-27T18:01:35.304Z,54.39
2023-04-27T18:04:04.610Z,56.20
2023-04-27T18:06:32.436Z,57.96
2023-04-27T18:08:59.794Z,56.53
2023-04-27T18:11:27.046Z,56.50
2023-04-27T18:13:54.918Z,55.94
2023-04-27T18:16:22.594Z,56.39
2023-04-27T18:18:49.910Z,57.78
2023-04-27T18:21:17.186Z,57.97
2023-04-27T18:23:44.823Z,58.35
2023-04-27T18:26:12.214Z,57.02
2023-04-27T18:28:41.706Z,55.25
2023-04-27T18:31:18.606Z,54.51
2023-04-27T18:33:46.070Z,55.26
2023-04-27T18:36:13.617Z,56.52
2023-04-27T18:38:40.912Z,57.62
2023-04-27T18:41:08.227Z,57.56
2023-04-27T18:43:36.627Z,56.70
2023-04-27T18:46:04.496Z,56.46
2023-04-27T18:48:32.466Z,56.74
2023-04-27T18:50:59.798Z,56.34
2023-04-27T18:53:27.220Z,57.85
2023-04-27T18:55:54.488Z,58.22
2023-04-27T18:58:21.800Z,58.62
2023-04-27T19:00:49.088Z,57.52
2023-04-27T19:03:16.584Z,55.13
2023-04-27T19:05:44.647Z,56.26
2023-04-27T19:08:11.986Z,55.48
2023-04-27T19:10:41.610Z,55.67
2023-04-27T19:13:08.931Z,55.38
2023-04-27T19:15:36.215Z,54.78
2023-04-27T19:18:10.469Z,54.86
2023-04-27T19:20:39.346Z,55.28
2023-04-27T19:23:08.035Z,54.79
2023-04-27T19:25:35.515Z,54.88
2023-04-27T19:28:02.765Z,55.69
2023-04-27T19:30:30.167Z,55.58
2023-04-27T19:32:57.676Z,53.35
2023-04-27T19:35:26.517Z,54.06
2023-04-27T19:37:53.868Z,54.55
2023-04-27T19:40:21.509Z,55.52
2023-04-27T19:42:49.770Z,57.83
2023-04-27T19:45:18.085Z,58.68
2023-04-27T19:47:46.102Z,58.59
2023-04-27T19:50:13.497Z,57.46
2023-04-27T19:52:40.954Z,56.83
2023-04-27T19:55:08.573Z,56.72
2023-04-27T19:57:36.486Z,58.63
2023-04-27T20:00:07.984Z,59.42
2023-04-27T20:02:40.416Z,59.15
2023-04-27T20:05:08.582Z,59.35
2023-04-27T20:07:37.455Z,59.63
2023-04-27T20:10:05.702Z,59.85
2023-04-27T20:12:51.478Z,59.96
2023-04-27T20:15:20.472Z,59.97
2023-04-27T20:17:47.986Z,58.94
2023-04-27T20:20:15.410Z,59.21
2023-04-27T20:22:42.832Z,59.60
2023-04-27T20:25:10.692Z,58.99
2023-04-27T20:27:38.015Z,60.29
2023-04-27T20:30:05.878Z,60.52
2023-04-27T20:32:33.234Z,59.57
2023-04-27T20:35:02.567Z,59.13
2023-04-27T20:37:30.368Z,59.41
2023-04-27T20:41:13.440Z,60.33
2023-04-27T20:43:44.705Z,61.43
2023-04-27T20:46:12.456Z,62.43
2023-04-27T20:48:39.821Z,62.24
2023-04-27T20:51:07.152Z,62.87
2023-04-27T20:53:34.387Z,62.41
2023-04-27T20:56:02.441Z,60.72
2023-04-27T20:58:29.697Z,61.88
2023-04-27T21:00:57.129Z,61.40
2023-04-27T21:03:24.629Z,61.63
2023-04-27T21:05:52.156Z,61.81
2023-04-27T21:08:19.412Z,61.58
2023-04-27T21:10:46.875Z,62.51
2023-04-27T21:13:14.252Z,61.38
2023-04-27T21:15:41.465Z,62.75
2023-04-27T21:18:16.058Z,63.34
2023-04-27T21:20:50.237Z,64.58
2023-04-27T21:23:17.829Z,64.17
2023-04-27T21:25:45.838Z,63.91
2023-04-27T21:28:13.447Z,65.64
2023-04-27T21:30:40.924Z,65.83
2023-04-27T21:33:08.251Z,66.13
2023-04-27T21:35:35.569Z,66.02
2023-04-27T21:38:02.827Z,65.33
2023-04-27T21:40:30.066Z,66.60
2023-04-27T21:42:57.333Z,65.49
2023-04-27T21:45:24.655Z,65.34
2023-04-27T21:47:51.977Z,65.50
2023-04-27T21:50:19.329Z,65.62
2023-04-27T21:52:46.648Z,65.72
2023-04-27T21:55:13.919Z,65.35
2023-04-27T21:57:41.185Z,66.35
2023-04-27T22:00:13.891Z,65.75
2023-04-27T22:02:48.503Z,67.24
2023-04-27T22:05:16.397Z,67.46
2023-04-27T22:07:45.912Z,67.03
2023-04-27T22:10:13.228Z,67.63
2023-04-27T22:12:40.481Z,68.63
2023-04-27T22:15:08.222Z,68.81
2023-04-27T22:17:35.690Z,68.79
2023-04-27T22:20:05.006Z,69.39
2023-04-27T22:22:32.288Z,67.96
2023-04-27T22:24:59.702Z,67.48
2023-04-27T22:27:35.132Z,67.89
2023-04-27T22:30:06.646Z,67.89
2023-04-27T22:32:33.931Z,68.90
2023-04-27T22:35:01.427Z,69.71
2023-04-27T22:37:29.721Z,68.54
2023-04-27T22:39:57.150Z,69.50
2023-04-27T22:42:25.849Z,69.96
2023-04-27T22:44:53.055Z,69.93
2023-04-27T22:47:20.355Z,68.30
2023-04-27T22:49:48.460Z,69.48
2023-04-27T22:52:16.635Z,70.20
2023-04-27T22:54:43.931Z,70.62
2023-04-27T22:57:11.432Z,71.12
2023-04-27T22:59:38.725Z,70.97
2023-04-27T23:02:06.185Z,70.73
2023-04-27T23:04:33.812Z,71.31
2023-04-27T23:07:01.064Z,71.58
2023-04-27T23:09:28.306Z,71.12
2023-04-27T23:11:57.831Z,71.09
2023-04-27T23:14:25.180Z,70.55
2023-04-27T23:16:52.502Z,69.94
2023-04-27T23:19:19.751Z,70.77
2023-04-27T23:21:46.970Z,70.71
2023-04-27T23:24:14.518Z,70.63
2023-04-27T23:26:42.041Z,70.27
2023-04-27T23:29:09.305Z,70.50
2023-04-27T23:31:36.919Z,70.64
2023-04-27T23:34:04.440Z,70.76
2023-04-27T23:36:31.683Z,70.91
2023-04-27T23:38:58.935Z,70.46
2023-04-27T23:41:26.207Z,71.18
2023-04-27T23:43:53.462Z,71.38
2023-04-27T23:46:20.848Z,71.44
2023-04-27T23:48:48.141Z,70.63
2023-04-27T23:51:15.491Z,71.53
2023-04-27T23:53:42.760Z,71.80
2023-04-27T23:56:17.866Z,72.08
2023-04-27T23:58:45.418Z,71.93
